^^
Datos históricos de la estación: Murcia-Puente Tocinos
Diario Informe para Octubre 25, 2019 Unidades:  Métrico    Ingés   Ambas
Diario Semanal Mensual Anual
  Máxima: Mínima: Promedio:
Temperatura: 24.7 °C 13.9 °C 18.5 °C
Punto de rocio: 12.3 °C 8.1 °C 9.8 °C
Humedad: 72.2% 39.9% 58%
Velocidad viento: 13km/h 0km/h 6.4km/h
Racha viento: 22.5km/h - -
Viento- - SSO
Presión: 1022.4 hPa 1018.8 hPa -
Precipitación: 0.0 mm    
 
 
Tabla de datos para Octubre 25, 2019
Hora Temperatura Punto de rocio Presión Viento Velocidad viento Racha viento Humedad Intensidad lluvia(por hora) Nubes
00:04 17.9 °C 8.2 °C 1021.3 hPa OSO 8.4 km/h 14.8 km/h 53% 0.0 mm
00:09 17.9 °C 8.2 °C 1021.3 hPa Oeste 8.7 km/h 14.8 km/h 53% 0.0 mm
00:14 17.8 °C 8.1 °C 1021.1 hPa Oeste 8.5 km/h 14.5 km/h 53.1% 0.0 mm
00:19 17.7 °C 8.3 °C 1021.1 hPa OSO 8.4 km/h 14.8 km/h 54% 0.0 mm
00:24 17.6 °C 8.3 °C 1021.1 hPa OSO 6.9 km/h 11.3 km/h 54.5% 0.0 mm
00:29 17.3 °C 8.4 °C 1021.1 hPa OSO 6.5 km/h 14.8 km/h 55.6% 0.0 mm
00:34 17.2 °C 8.4 °C 1021.1 hPa Sur 7.3 km/h 14.5 km/h 56.5% 0.0 mm
00:39 16.9 °C 8.6 °C 1021.4 hPa SE 7.6 km/h 15.6 km/h 58% 0.0 mm
00:44 16.5 °C 8.6 °C 1021.4 hPa SE 7.6 km/h 16.1 km/h 59.7% 0.0 mm
00:49 16.2 °C 8.6 °C 1021.4 hPa Sur 7.6 km/h 16.7 km/h 60.5% 0.0 mm
00:54 16.2 °C 8.4 °C 1021.5 hPa SSE 9.3 km/h 22.5 km/h 59.7% 0.0 mm
00:59 16.4 °C 8.4 °C 1021.5 hPa Sur 10 km/h 22.5 km/h 59% 0.0 mm
01:04 16.4 °C 8.4 °C 1021.5 hPa SSO 12.3 km/h 19.3 km/h 59% 0.0 mm
01:09 16.6 °C 8.3 °C 1021.5 hPa SSO 13 km/h 19.3 km/h 58.1% 0.0 mm
01:14 16.6 °C 8.5 °C 1021.5 hPa SO 11.6 km/h 19.3 km/h 58.8% 0.0 mm
01:19 16.5 °C 8.5 °C 1021.5 hPa SO 11.1 km/h 19.3 km/h 58.9% 0.0 mm
01:24 16.7 °C 8.3 °C 1021.5 hPa SO 9.9 km/h 18.5 km/h 58% 0.0 mm
01:29 16.7 °C 8.4 °C 1021.4 hPa SSO 9.5 km/h 19.3 km/h 58% 0.0 mm
01:34 16.8 °C 8.5 °C 1021.4 hPa SSE 8.7 km/h 14.5 km/h 58% 0.0 mm
01:39 16.5 °C 8.4 °C 1021.6 hPa Sur 8.4 km/h 14.5 km/h 58.8% 0.0 mm
01:44 16.3 °C 8.4 °C 1021.6 hPa SSO 8.6 km/h 13.7 km/h 59.6% 0.0 mm
01:49 16.2 °C 8.5 °C 1021.6 hPa SO 8.7 km/h 14.5 km/h 60% 0.0 mm
01:54 16.3 °C 8.4 °C 1021.6 hPa SO 8.5 km/h 12.9 km/h 59.5% 0.0 mm
01:59 16.3 °C 8.3 °C 1021.3 hPa SSO 8.4 km/h 14.8 km/h 59% 0.0 mm
02:04 16.4 °C 8.4 °C 1021.3 hPa SO 8.4 km/h 14.8 km/h 59% 0.0 mm
02:09 16.4 °C 8.4 °C 1021.3 hPa SSO 8.4 km/h 14.8 km/h 59% 0.0 mm
02:14 16.5 °C 8.3 °C 1021.3 hPa SSO 8.6 km/h 14.5 km/h 58.3% 0.0 mm
02:19 16.6 °C 8.3 °C 1021.3 hPa SO 8.7 km/h 13 km/h 58% 0.0 mm
02:24 16.5 °C 8.2 °C 1021.4 hPa SO 8.5 km/h 13 km/h 58% 0.0 mm
02:29 16.5 °C 8.2 °C 1021.4 hPa SSO 8.4 km/h 15.6 km/h 58% 0.0 mm
02:34 16.4 °C 8.3 °C 1021.4 hPa SSO 9.5 km/h 16.1 km/h 58.8% 0.0 mm
02:39 16.2 °C 8.4 °C 1021.4 hPa SSO 10 km/h 14.8 km/h 59.7% 0.0 mm
02:44 16 °C 8.3 °C 1021.3 hPa SO 9 km/h 14.5 km/h 60.1% 0.0 mm
02:49 15.9 °C 8.4 °C 1021.3 hPa SSO 8.7 km/h 12.9 km/h 61% 0.0 mm
02:54 15.8 °C 8.3 °C 1021.4 hPa Sur 6 km/h 8.4 km/h 61% 0.0 mm
02:59 15.8 °C 8.4 °C 1021.4 hPa SSE 5 km/h 11.1 km/h 61.6% 0.0 mm
03:04 15.7 °C 8.4 °C 1021.4 hPa Sur 6.1 km/h 11.3 km/h 62% 0.0 mm
03:09 15.5 °C 8.5 °C 1021.4 hPa SSO 6.5 km/h 12.2 km/h 62.9% 0.0 mm
03:14 15.4 °C 8.4 °C 1021.4 hPa SO 7.3 km/h 13 km/h 63.2% 0.0 mm
03:19 15.3 °C 8.5 °C 1021.4 hPa SSO 7.6 km/h 12.9 km/h 64% 0.0 mm
03:24 15.3 °C 8.5 °C 1021.4 hPa SSO 6.3 km/h 13 km/h 64% 0.0 mm
03:29 15.3 °C 8.5 °C 1021.4 hPa SO 5.8 km/h 12.9 km/h 64% 0.0 mm
03:34 15.3 °C 8.5 °C 1021.4 hPa SSO 7.1 km/h 11.3 km/h 63.9% 0.0 mm
03:39 15.4 °C 8.5 °C 1021.4 hPa SSE 7.6 km/h 9.7 km/h 63.7% 0.0 mm
03:44 15.3 °C 8.6 °C 1021.2 hPa SE 6.3 km/h 11.9 km/h 64.3% 0.0 mm
03:49 15 °C 8.6 °C 1021.2 hPa SSE 5.8 km/h 11.3 km/h 65.4% 0.0 mm
03:54 14.8 °C 8.5 °C 1021.4 hPa SSO 7.1 km/h 11.3 km/h 66% 0.0 mm
03:59 14.8 °C 8.5 °C 1021.4 hPa SSO 7.6 km/h 13.7 km/h 66% 0.0 mm
04:04 14.9 °C 8.6 °C 1021.4 hPa SSO 8.2 km/h 14.5 km/h 66% 0.0 mm
04:09 14.9 °C 8.6 °C 1021.4 hPa SO 8.4 km/h 11.3 km/h 66% 0.0 mm
04:14 14.9 °C 8.5 °C 1021.1 hPa SO 7.3 km/h 13 km/h 65.7% 0.0 mm
04:19 15 °C 8.5 °C 1021.1 hPa SSO 6.9 km/h 13 km/h 65% 0.0 mm
04:24 15.2 °C 8.6 °C 1021.1 hPa SO 7.4 km/h 11.3 km/h 64.9% 0.0 mm
04:29 15.2 °C 8.4 °C 1021.0 hPa SO 7.6 km/h 11.1 km/h 64% 0.0 mm
04:34 15.3 °C 8.5 °C 1021.0 hPa SO 6.8 km/h 11.3 km/h 64% 0.0 mm
04:39 15.3 °C 8.5 °C 1021.0 hPa SO 6.5 km/h 14.8 km/h 63.8% 0.0 mm
04:44 15.3 °C 8.3 °C 1021.0 hPa SO 8.1 km/h 14.5 km/h 63% 0.0 mm
04:49 15.4 °C 8.4 °C 1021.0 hPa SO 8.7 km/h 15.6 km/h 63% 0.0 mm
04:54 15.5 °C 8.4 °C 1021.0 hPa SO 8.5 km/h 16.7 km/h 62.8% 0.0 mm
04:59 15.6 °C 8.3 °C 1020.8 hPa SSO 8.4 km/h 16.1 km/h 62% 0.0 mm
05:04 15.6 °C 8.3 °C 1020.8 hPa SSO 8.4 km/h 12.9 km/h 62% 0.0 mm
05:09 15.6 °C 8.4 °C 1020.9 hPa SSO 8.4 km/h 13 km/h 62.5% 0.0 mm
05:14 15.4 °C 8.4 °C 1020.9 hPa SSO 7.8 km/h 16.7 km/h 63% 0.0 mm
05:19 15.3 °C 8.3 °C 1020.9 hPa SSO 7.6 km/h 18.5 km/h 63% 0.0 mm
05:24 15.3 °C 8.5 °C 1021.0 hPa SSO 10.2 km/h 19.3 km/h 63.9% 0.0 mm
05:29 15.2 °C 8.4 °C 1021.0 hPa SSO 11.1 km/h 19.8 km/h 64% 0.0 mm
05:34 15.2 °C 8.4 °C 1021.0 hPa SSO 11.1 km/h 21.7 km/h 64% 0.0 mm
05:39 15.2 °C 8.4 °C 1021.1 hPa SSO 11.1 km/h 22.5 km/h 64% 0.0 mm
05:44 15.2 °C 8.5 °C 1021.1 hPa SSO 11.1 km/h 19.3 km/h 64% 0.0 mm
05:49 15.3 °C 8.4 °C 1021.1 hPa SSO 11.1 km/h 19.3 km/h 63.7% 0.0 mm
05:54 15.4 °C 8.4 °C 1021.2 hPa SSO 10.3 km/h 17.7 km/h 63% 0.0 mm
05:59 15.4 °C 8.4 °C 1021.2 hPa SSO 10 km/h 13 km/h 63% 0.0 mm
06:04 15.4 °C 8.4 °C 1021.2 hPa SSO 9 km/h 13 km/h 62.9% 0.0 mm
06:09 15.5 °C 8.2 °C 1021.5 hPa SSO 8.7 km/h 13 km/h 62% 0.0 mm
06:14 15.6 °C 8.3 °C 1021.5 hPa SSO 8.7 km/h 18.5 km/h 62% 0.0 mm
06:19 15.5 °C 8.3 °C 1021.5 hPa SO 8.7 km/h 19.3 km/h 62% 0.0 mm
06:24 15.5 °C 8.2 °C 1021.5 hPa SO 9.6 km/h 16.1 km/h 62.2% 0.0 mm
06:29 15.4 °C 8.4 °C 1021.4 hPa SSO 10 km/h 16.1 km/h 63% 0.0 mm
06:34 15.3 °C 8.3 °C 1021.4 hPa SO 7.8 km/h 11.3 km/h 63% 0.0 mm
06:39 15.3 °C 8.3 °C 1021.6 hPa SO 6.9 km/h 13 km/h 63% 0.0 mm
06:44 15.2 °C 8.4 °C 1021.6 hPa SO 6.6 km/h 12.9 km/h 63.8% 0.0 mm
06:49 15.2 °C 8.4 °C 1021.6 hPa SO 6.5 km/h 11.3 km/h 64% 0.0 mm
06:54 15.2 °C 8.4 °C 1021.6 hPa SO 6.5 km/h 10 km/h 64% 0.0 mm
06:59 15.1 °C 8.3 °C 1021.5 hPa SO 6.5 km/h 9.7 km/h 64% 0.0 mm
07:04 15.1 °C 8.3 °C 1021.5 hPa SO 5.3 km/h 9.7 km/h 64% 0.0 mm
07:09 14.9 °C 8.2 °C 1021.6 hPa SO 5 km/h 8 km/h 64% 0.0 mm
07:14 14.9 °C 8.3 °C 1021.6 hPa SO 3.7 km/h 13 km/h 64.7% 0.0 mm
07:19 14.8 °C 8.3 °C 1021.6 hPa SO 3.2 km/h 12.9 km/h 65% 0.0 mm
07:24 14.8 °C 8.2 °C 1021.6 hPa SO 5.6 km/h 10 km/h 65% 0.0 mm
07:29 14.7 °C 8.2 °C 1021.6 hPa OSO 6.5 km/h 9.7 km/h 65% 0.0 mm
07:34 14.6 °C 8.3 °C 1021.6 hPa OSO 4.5 km/h 9.7 km/h 65.9% 0.0 mm
07:39 14.5 °C 8.3 °C 1021.6 hPa OSO 3.9 km/h 4.8 km/h 66.3% 0.0 mm
07:44 14.3 °C 8.3 °C 1021.6 hPa OSO 1.1 km/h 3.2 km/h 67% 0.0 mm
07:49 14.2 °C 8.3 °C 1021.6 hPa Calm   3.7 km/h 67.5% 0.0 mm
07:54 14.2 °C 8.4 °C 1021.6 hPa Calm   5.6 km/h 68% 0.0 mm
07:59 14.1 °C 8.4 °C 1021.6 hPa Calm   5.6 km/h 68.8% 0.0 mm
08:04 13.9 °C 8.3 °C 1021.6 hPa OSO 2.2 km/h 4.8 km/h 69% 0.0 mm
08:09 13.9 °C 8.3 °C 1021.6 hPa SO 2.9 km/h 7.6 km/h 69% 0.0 mm
08:14 14 °C 8.4 °C 1021.6 hPa SO 3.6 km/h 8.4 km/h 69% 0.0 mm
08:19 14.1 °C 8.3 °C 1021.6 hPa SO 3.9 km/h 9.3 km/h 68.2% 0.0 mm
08:24 14.2 °C 8.4 °C 1021.7 hPa SO 5.3 km/h 9.7 km/h 68% 0.0 mm
08:29 14.2 °C 8.4 °C 1021.7 hPa SO 5.8 km/h 9.7 km/h 68% 0.0 mm
08:34 14.1 °C 8.3 °C 1021.7 hPa SO 5.8 km/h 9.7 km/h 68% 0.0 mm
08:39 14.1 °C 8.3 °C 1021.7 hPa SO 5.8 km/h 8 km/h 68% 0.0 mm
08:44 14.1 °C 8.3 °C 1021.6 hPa OSO 5.2 km/h 8 km/h 68.2% 0.0 mm
08:49 14 °C 8.4 °C 1021.6 hPa SO 5 km/h 9.3 km/h 69% 0.0 mm
08:54 13.9 °C 8.3 °C 1021.8 hPa SO 5 km/h 9.7 km/h 69% 0.0 mm
08:59 14 °C 8.4 °C 1021.8 hPa SO 5 km/h 8 km/h 69.1% 0.0 mm
09:04 14.1 °C 8.5 °C 1021.8 hPa SSO 4.7 km/h 11.1 km/h 69% 0.0 mm
09:09 14.3 °C 8.5 °C 1022.1 hPa SO 4.7 km/h 11.3 km/h 68.4% 0.0 mm
09:14 14.4 °C 8.5 °C 1022.1 hPa SSO 5.9 km/h 11.1 km/h 67.7% 0.0 mm
09:19 14.7 °C 8.5 °C 1022.1 hPa SSO 6.5 km/h 14.8 km/h 66.7% 0.0 mm
09:24 14.8 °C 8.5 °C 1022.1 hPa SSO 8.1 km/h 14.8 km/h 65.8% 0.0 mm
09:29 14.9 °C 8.4 °C 1022.1 hPa SSO 8.7 km/h 14.5 km/h 65% 0.0 mm
09:34 15.1 °C 8.6 °C 1022.1 hPa SSO 8.5 km/h 13 km/h 65% 0.0 mm
09:39 15.2 °C 8.6 °C 1022.2 hPa SSO 8.4 km/h 13.7 km/h 64.5% 0.0 mm
09:44 15.3 °C 8.6 °C 1022.2 hPa SSO 8.6 km/h 16.1 km/h 64.2% 0.0 mm
09:49 15.4 °C 8.6 °C 1022.2 hPa SSO 8.7 km/h 16.7 km/h 64% 0.0 mm
09:54 15.6 °C 8.7 °C 1022.4 hPa SSO 9.6 km/h 16.1 km/h 63.6% 0.0 mm
09:59 15.8 °C 8.7 °C 1022.4 hPa SO 10 km/h 13 km/h 63% 0.0 mm
10:04 15.9 °C 8.7 °C 1022.4 hPa SO 8.1 km/h 13 km/h 62.3% 0.0 mm
10:09 16.1 °C 8.8 °C 1022.4 hPa SSO 7.6 km/h 12.9 km/h 62% 0.0 mm
10:14 16.2 °C 8.7 °C 1022.2 hPa SSO 8.2 km/h 15.6 km/h 61% 0.0 mm
10:19 16.3 °C 8.8 °C 1022.2 hPa SSO 8.4 km/h 16.1 km/h 61% 0.0 mm
10:24 16.5 °C 9 °C 1022.3 hPa Sur 7 km/h 12.2 km/h 61% 0.0 mm
10:29 16.7 °C 9 °C 1022.3 hPa SO 6.5 km/h 16.1 km/h 60.2% 0.0 mm
10:34 16.8 °C 9 °C 1022.3 hPa SSO 6.8 km/h 16.1 km/h 60.1% 0.0 mm
10:39 16.9 °C 9.1 °C 1022.3 hPa SO 6.9 km/h 16.1 km/h 59.9% 0.0 mm
10:44 17.1 °C 9.2 °C 1022.3 hPa SO 8 km/h 14.8 km/h 60% 0.0 mm
10:49 17.2 °C 9.4 °C 1022.3 hPa SSO 8.4 km/h 14.5 km/h 60.1% 0.0 mm
10:54 17.3 °C 9.5 °C 1022.3 hPa SSO 7.8 km/h 13.7 km/h 60% 0.0 mm
10:59 17.5 °C 9.6 °C 1022.2 hPa SSO 7.6 km/h 15.6 km/h 59.9% 0.0 mm
11:04 17.6 °C 9.7 °C 1022.2 hPa SSO 8.5 km/h 16.1 km/h 59.6% 0.0 mm
11:09 17.8 °C 9.6 °C 1022.2 hPa SO 8.7 km/h 13 km/h 58.7% 0.0 mm
11:14 17.9 °C 9.5 °C 1022.0 hPa OSO 7.4 km/h 12.9 km/h 58% 0.0 mm
11:19 18.2 °C 9.7 °C 1022.0 hPa OSO 6.9 km/h 13 km/h 57.7% 0.0 mm
11:24 18.3 °C 9.6 °C 1022.0 hPa SO 6.6 km/h 16.7 km/h 56.8% 0.0 mm
11:29 18.5 °C 9.4 °C 1021.9 hPa OSO 6.5 km/h 16.1 km/h 55.5% 0.0 mm
11:34 18.6 °C 9.4 °C 1021.9 hPa OSO 7.9 km/h 18.3 km/h 55% 0.0 mm
11:39 18.7 °C 9.3 °C 1021.9 hPa OSO 8.4 km/h 19.3 km/h 54.4% 0.0 mm
11:44 18.8 °C 9.5 °C 1021.9 hPa Oeste 9.8 km/h 17.7 km/h 54.6% 0.0 mm
11:49 19.1 °C 9.6 °C 1021.9 hPa ONO 10.3 km/h 14.5 km/h 54% 0.0 mm
11:54 19.3 °C 9.4 °C 1021.9 hPa OSO 7.5 km/h 14.5 km/h 52.9% 0.0 mm
11:59 19.5 °C 9.6 °C 1021.9 hPa OSO 6.5 km/h 18.5 km/h 52.9% 0.0 mm
12:04 19.7 °C 9.7 °C 1021.9 hPa Oeste 7.3 km/h 19.3 km/h 52.4% 0.0 mm
12:09 19.7 °C 9.6 °C 1021.9 hPa OSO 7.6 km/h 14.8 km/h 52% 0.0 mm
12:14 19.8 °C 9.6 °C 1021.7 hPa OSO 7.6 km/h 14.8 km/h 51.8% 0.0 mm
12:19 19.9 °C 9.6 °C 1021.7 hPa SO 7.6 km/h 14.5 km/h 51.4% 0.0 mm
12:24 19.9 °C 9.6 °C 1021.8 hPa OSO 6.8 km/h 12.9 km/h 51.4% 0.0 mm
12:29 20.2 °C 9.7 °C 1021.8 hPa SSE 6.5 km/h 12.2 km/h 51% 0.0 mm
12:34 20.3 °C 9.8 °C 1021.8 hPa Sur 6 km/h 13 km/h 50.8% 0.0 mm
12:39 20.4 °C 9.8 °C 1021.8 hPa SSO 5.8 km/h 13 km/h 50.4% 0.0 mm
12:44 20.6 °C 9.9 °C 1021.7 hPa Oeste 6.6 km/h 13 km/h 50.3% 0.0 mm
12:49 20.7 °C 9.9 °C 1021.7 hPa SO 6.9 km/h 14.8 km/h 50% 0.0 mm
12:54 20.7 °C 9.9 °C 1021.7 hPa SO 7.4 km/h 16.1 km/h 50% 0.0 mm
12:59 20.7 °C 9.9 °C 1021.5 hPa SSO 7.6 km/h 16.7 km/h 50% 0.0 mm
13:04 20.8 °C 9.9 °C 1021.5 hPa OSO 8.2 km/h 16.1 km/h 49.8% 0.0 mm
13:09 20.8 °C 9.7 °C 1021.5 hPa OSO 8.4 km/h 13 km/h 49% 0.0 mm
13:14 21 °C 9.9 °C 1021.5 hPa SSO 7.8 km/h 16.7 km/h 49.3% 0.0 mm
13:19 21.1 °C 10.1 °C 1021.5 hPa Sur 7.6 km/h 16.1 km/h 49.4% 0.0 mm
13:24 21.3 °C 10.1 °C 1021.5 hPa SSE 8.4 km/h 12.9 km/h 48.8% 0.0 mm
13:29 21.4 °C 10.2 °C 1021.2 hPa SO 8.7 km/h 13 km/h 48.7% 0.0 mm
13:34 21.6 °C 10 °C 1021.2 hPa Sur 7.4 km/h 12.9 km/h 47.6% 0.0 mm
13:39 21.8 °C 10.2 °C 1021.2 hPa SSO 6.9 km/h 13 km/h 47.8% 0.0 mm
13:44 22 °C 10.1 °C 1021.1 hPa ONO 6.1 km/h 14.8 km/h 46.7% 0.0 mm
13:49 22.2 °C 10 °C 1021.1 hPa NO 5.8 km/h 14.5 km/h 46% 0.0 mm
13:54 22.2 °C 10 °C 1021.1 hPa OSO 7.1 km/h 17.2 km/h 45.9% 0.0 mm
13:59 22.2 °C 9.9 °C 1020.9 hPa SO 7.6 km/h 17.7 km/h 45.6% 0.0 mm
14:04 22.2 °C 10 °C 1020.9 hPa SSO 7.6 km/h 14.8 km/h 46% 0.0 mm
14:09 22.3 °C 10.1 °C 1020.9 hPa SO 7.6 km/h 19 km/h 46% 0.0 mm
14:14 22.5 °C 10.3 °C 1020.6 hPa SO 6.7 km/h 19.3 km/h 45.8% 0.0 mm
14:19 22.8 °C 10.2 °C 1020.6 hPa NNO 6.5 km/h 10 km/h 44.9% 0.0 mm
14:24 22.9 °C 10 °C 1020.6 hPa SO 5.4 km/h 13.7 km/h 44.2% 0.0 mm
14:29 22.8 °C 10.1 °C 1020.5 hPa OSO 5 km/h 14.8 km/h 44.6% 0.0 mm
14:34 22.8 °C 10.2 °C 1020.5 hPa NO 6.9 km/h 14.8 km/h 45% 0.0 mm
14:39 22.9 °C 10.3 °C 1020.5 hPa NNO 7.6 km/h 14.5 km/h 45% 0.0 mm
14:44 23.1 °C 10.4 °C 1020.2 hPa SO 5.7 km/h 11.1 km/h 44.6% 0.0 mm
14:49 22.9 °C 10.2 °C 1020.2 hPa OSO 5 km/h 13.7 km/h 44.5% 0.0 mm
14:54 22.9 °C 10.4 °C 1020.2 hPa SSO 6 km/h 14.5 km/h 45.1% 0.0 mm
14:59 22.9 °C 10.3 °C 1020.0 hPa SSO 6.5 km/h 11.3 km/h 45% 0.0 mm
15:04 23 °C 10.4 °C 1020.0 hPa Sur 4.5 km/h 11.9 km/h 44.8% 0.0 mm
15:09 23.2 °C 10.2 °C 1020.1 hPa SE 3.9 km/h 11.3 km/h 44% 0.0 mm
15:14 23.2 °C 10.4 °C 1020.1 hPa ENE 5.8 km/h 9.7 km/h 44.3% 0.0 mm
15:19 23.3 °C 10.3 °C 1020.1 hPa SSE 6.5 km/h 9.7 km/h 44% 0.0 mm
15:24 23.4 °C 10.5 °C 1020.1 hPa Este 4.6 km/h 8 km/h 44% 0.0 mm
15:29 23.5 °C 10.3 °C 1019.8 hPa SE 3.9 km/h 9.3 km/h 43.3% 0.0 mm
15:34 23.5 °C 10.2 °C 1019.8 hPa ESE 4.4 km/h 10.3 km/h 43.1% 0.0 mm
15:39 23.3 °C 10.2 °C 1019.8 hPa NE 4.7 km/h 11.1 km/h 43.4% 0.0 mm
15:44 23.2 °C 10.3 °C 1019.7 hPa NE 5.5 km/h 11.3 km/h 43.9% 0.0 mm
15:49 23.2 °C 10.3 °C 1019.7 hPa ENE 5.8 km/h 9.7 km/h 44% 0.0 mm
15:54 23.3 °C 10.3 °C 1019.7 hPa SE 5 km/h 11.1 km/h 43.9% 0.0 mm
15:59 23.3 °C 10.2 °C 1019.5 hPa SSO 4.7 km/h 11.3 km/h 43.4% 0.0 mm
16:04 23.4 °C 10.4 °C 1019.5 hPa Oeste 4.9 km/h 9.7 km/h 43.8% 0.0 mm
16:09 23.7 °C 10.3 °C 1019.5 hPa NNO 5 km/h 9.7 km/h 43% 0.0 mm
16:14 23.8 °C 10.2 °C 1019.4 hPa Oeste 3.5 km/h 9.5 km/h 42% 0.0 mm
16:19 23.9 °C 9.9 °C 1019.4 hPa ONO 2.9 km/h 9.7 km/h 41% 0.0 mm
16:24 24.1 °C 10.1 °C 1019.4 hPa North 3.1 km/h 8 km/h 41.2% 0.0 mm
16:29 24.3 °C 10.2 °C 1019.4 hPa ESE 3.2 km/h 7.6 km/h 41% 0.0 mm
16:34 24.4 °C 10.2 °C 1019.4 hPa Sur 3.2 km/h 8.4 km/h 40.8% 0.0 mm
16:39 24.5 °C 10.4 °C 1019.4 hPa SO 3.2 km/h 8 km/h 41% 0.0 mm
16:44 24.7 °C 10.1 °C 1019.3 hPa SSE 3.7 km/h 8 km/h 40% 0.0 mm
16:49 24.7 °C 10.1 °C 1019.3 hPa SE 3.9 km/h 8 km/h 39.9% 0.0 mm
16:54 24.6 °C 10.3 °C 1019.3 hPa SE 3.9 km/h 10 km/h 40.5% 0.0 mm
16:59 24.3 °C 10.3 °C 1019.2 hPa Este 3.9 km/h 13 km/h 41.3% 0.0 mm
17:04 24.1 °C 10.4 °C 1019.2 hPa ESE 6.3 km/h 13 km/h 42% 0.0 mm
17:09 23.9 °C 10.5 °C 1019.2 hPa ESE 6.9 km/h 13.7 km/h 42.6% 0.0 mm
17:14 23.9 °C 11.1 °C 1019.1 hPa ESE 8.2 km/h 18.5 km/h 44.7% 0.0 mm
17:19 23.7 °C 11.6 °C 1019.1 hPa ESE 8.7 km/h 19.3 km/h 46.4% 0.0 mm
17:24 23.7 °C 11.8 °C 1019.2 hPa ESE 11.1 km/h 18.5 km/h 47.2% 0.0 mm
17:29 23.7 °C 11.9 °C 1019.2 hPa ESE 11.9 km/h 19.3 km/h 47.7% 0.0 mm
17:34 23.6 °C 12 °C 1019.2 hPa ESE 10.7 km/h 19.3 km/h 47.9% 0.0 mm
17:39 23.5 °C 11.9 °C 1019.2 hPa ESE 10.3 km/h 19.3 km/h 48% 0.0 mm
17:44 23.4 °C 11.8 °C 1019.0 hPa SE 10.3 km/h 19.3 km/h 48.1% 0.0 mm
17:49 23.3 °C 12 °C 1019.0 hPa SE 10.3 km/h 16.7 km/h 48.9% 0.0 mm
17:54 23.3 °C 11.9 °C 1019.0 hPa SE 10.1 km/h 16.7 km/h 49% 0.0 mm
17:59 23.2 °C 12 °C 1019.0 hPa ESE 10 km/h 16.7 km/h 49.3% 0.0 mm
18:04 23.2 °C 12.2 °C 1019.0 hPa ESE 9 km/h 11.9 km/h 50% 0.0 mm
18:09 23.2 °C 12.2 °C 1019.0 hPa SSE 8.7 km/h 15.6 km/h 50% 0.0 mm
18:14 23.2 °C 12.2 °C 1019.0 hPa SSE 8.7 km/h 16.1 km/h 50% 0.0 mm
18:19 23.1 °C 12.1 °C 1019.0 hPa SE 8.7 km/h 14.5 km/h 50% 0.0 mm
18:24 23.1 °C 12.2 °C 1019.0 hPa SE 7.9 km/h 12.9 km/h 50.2% 0.0 mm
18:29 23.1 °C 12.3 °C 1018.9 hPa SSE 7.6 km/h 11.3 km/h 50.7% 0.0 mm
18:34 23.1 °C 12.2 °C 1018.9 hPa SSE 6.7 km/h 11.3 km/h 50.3% 0.0 mm
18:39 23.2 °C 12.3 °C 1018.9 hPa Sur 6.5 km/h 11.1 km/h 50.3% 0.0 mm
18:44 23.2 °C 12.2 °C 1018.8 hPa SSE 5.4 km/h 11.3 km/h 50.2% 0.0 mm
18:49 23.1 °C 12.2 °C 1018.8 hPa Sur 5 km/h 11.1 km/h 50.5% 0.0 mm
18:54 22.8 °C 12.2 °C 1018.9 hPa SSO 6.1 km/h 13 km/h 51% 0.0 mm
18:59 22.7 °C 12 °C 1018.9 hPa SSO 6.5 km/h 13 km/h 51% 0.0 mm
19:04 22.5 °C 11.9 °C 1018.9 hPa Sur 6.8 km/h 12.9 km/h 51% 0.0 mm
19:09 22.3 °C 12 °C 1019.0 hPa Sur 6.9 km/h 10 km/h 51.9% 0.0 mm
19:14 22.2 °C 11.9 °C 1019.0 hPa Sur 6.6 km/h 11.1 km/h 52% 0.0 mm
19:19 22.1 °C 11.9 °C 1019.0 hPa SSO 6.5 km/h 11.3 km/h 52.5% 0.0 mm
19:24 21.9 °C 11.9 °C 1019.1 hPa SSO 6 km/h 9.7 km/h 53% 0.0 mm
19:29 21.9 °C 11.9 °C 1019.1 hPa SSO 5.8 km/h 8 km/h 53.2% 0.0 mm
19:34 21.8 °C 12.1 °C 1019.1 hPa SSE 3.7 km/h 8 km/h 54.3% 0.0 mm
19:39 21.7 °C 12.3 °C 1019.3 hPa Este 2.9 km/h 8 km/h 55.3% 0.0 mm
19:44 21.5 °C 12.3 °C 1019.3 hPa Este 2.9 km/h 6.4 km/h 56% 0.0 mm
19:49 21.3 °C 12.1 °C 1019.3 hPa Este 2.9 km/h 4.8 km/h 56% 0.0 mm
19:54 21.1 °C 12.2 °C 1019.5 hPa ESE 0.8 km/h 11.9 km/h 57% 0.0 mm
19:59 20.8 °C 12.1 °C 1019.5 hPa Calm   11.3 km/h 57.3% 0.0 mm
20:04 20.7 °C 11.9 °C 1019.5 hPa SO 5 km/h 15.6 km/h 57.2% 0.0 mm
20:09 20.4 °C 11.8 °C 1019.6 hPa SO 6.5 km/h 16.1 km/h 57.5% 0.0 mm
20:14 20.3 °C 11.8 °C 1019.6 hPa SO 8.1 km/h 14.5 km/h 58% 0.0 mm
20:19 20.2 °C 11.7 °C 1019.6 hPa SO 8.7 km/h 11.9 km/h 58.2% 0.0 mm
20:24 20.1 °C 11.7 °C 1019.8 hPa SSO 7.4 km/h 11.3 km/h 58.8% 0.0 mm
20:29 19.9 °C 11.7 °C 1019.8 hPa SSO 6.9 km/h 11.3 km/h 59% 0.0 mm
20:34 19.8 °C 11.7 °C 1019.8 hPa SE 6.9 km/h 11.3 km/h 59.4% 0.0 mm
20:39 19.7 °C 11.9 °C 1020.0 hPa SE 6.9 km/h 9.7 km/h 60.6% 0.0 mm
20:44 19.6 °C 12 °C 1020.0 hPa SE 5.5 km/h 8.7 km/h 61.4% 0.0 mm
20:49 19.4 °C 12 °C 1020.0 hPa ENE 5 km/h 9.7 km/h 62% 0.0 mm
20:54 19.4 °C 11.9 °C 1020.2 hPa ENE 4.8 km/h 9.7 km/h 62% 0.0 mm
20:59 19.3 °C 11.9 °C 1020.2 hPa ENE 4.7 km/h 7.4 km/h 62% 0.0 mm
21:04 19.2 °C 11.8 °C 1020.2 hPa ENE 3.5 km/h 8 km/h 62.3% 0.0 mm
21:09 19.1 °C 11.8 °C 1020.2 hPa ENE 3.2 km/h 4.8 km/h 62.4% 0.0 mm
21:14 19.1 °C 11.6 °C 1020.2 hPa ESE 2.5 km/h 6.9 km/h 61.9% 0.0 mm
21:19 19.1 °C 11.4 °C 1020.2 hPa SSE 2.2 km/h 8 km/h 61% 0.0 mm
21:24 19.1 °C 11.2 °C 1020.2 hPa SSO 3.4 km/h 8 km/h 60.3% 0.0 mm
21:29 19.1 °C 11.2 °C 1020.1 hPa SSE 3.9 km/h 8.4 km/h 60% 0.0 mm
21:34 19.2 °C 11.2 °C 1020.1 hPa SSE 4.7 km/h 8 km/h 60% 0.0 mm
21:39 19.1 °C 11.3 °C 1020.3 hPa SSE 5 km/h 8 km/h 60.7% 0.0 mm
21:44 19.1 °C 11.4 °C 1020.3 hPa SSE 3.5 km/h 4.8 km/h 61.2% 0.0 mm
21:49 19 °C 11.5 °C 1020.3 hPa ESE 2.9 km/h 5.6 km/h 62% 0.0 mm
21:54 18.8 °C 11.5 °C 1020.3 hPa Este 2.4 km/h 4.8 km/h 62.4% 0.0 mm
21:59 18.7 °C 11.6 °C 1020.3 hPa Este 2.2 km/h 3.2 km/h 63% 0.0 mm
22:04 18.7 °C 11.6 °C 1020.3 hPa Este 0.5 km/h   63.4% 0.0 mm
22:09 18.6 °C 11.6 °C 1020.3 hPa Calm   3.9 km/h 64% 0.0 mm
22:14 18.4 °C 11.7 °C 1020.3 hPa Calm   3.7 km/h 64.8% 0.0 mm
22:19 18.4 °C 11.7 °C 1020.3 hPa Calm   3.2 km/h 65% 0.0 mm
22:24 18.3 °C 11.7 °C 1020.3 hPa Calm   2.3 km/h 65.5% 0.0 mm
22:29 18.3 °C 11.8 °C 1020.3 hPa Calm   5 km/h 66% 0.0 mm
22:34 18.2 °C 11.7 °C 1020.3 hPa Calm   5.6 km/h 66% 0.0 mm
22:39 18.2 °C 11.8 °C 1020.3 hPa Calm   5.8 km/h 66.2% 0.0 mm
22:44 18.1 °C 11.8 °C 1020.3 hPa ESE 2.4 km/h 6.4 km/h 67% 0.0 mm
22:49 17.9 °C 11.8 °C 1020.3 hPa ESE 3.2 km/h 4.8 km/h 67.5% 0.0 mm
22:54 17.8 °C 11.8 °C 1020.4 hPa ESE 0.8 km/h 4.7 km/h 68% 0.0 mm
22:59 17.6 °C 11.8 °C 1020.4 hPa Calm   4.8 km/h 68.9% 0.0 mm
23:04 17.5 °C 11.7 °C 1020.4 hPa ESE 1.7 km/h 3.2 km/h 69% 0.0 mm
23:09 17.3 °C 11.8 °C 1020.4 hPa SE 2.2 km/h 7.6 km/h 69.9% 0.0 mm
23:14 17.2 °C 11.9 °C 1020.4 hPa SE 2.7 km/h 8 km/h 70.9% 0.0 mm
23:19 17.1 °C 11.8 °C 1020.4 hPa SE 2.9 km/h 6.4 km/h 71% 0.0 mm
23:24 17.1 °C 11.9 °C 1020.7 hPa SE 0.8 km/h 1.9 km/h 72% 0.0 mm
23:29 16.9 °C 11.8 °C 1020.7 hPa Calm   3.9 km/h 72% 0.0 mm
23:34 16.9 °C 11.9 °C 1020.7 hPa Calm   9.3 km/h 72.2% 0.0 mm
23:39 16.9 °C 11.8 °C 1020.7 hPa Calm   9.7 km/h 72% 0.0 mm
23:44 16.9 °C 11.8 °C 1020.5 hPa SO 3.6 km/h 9.7 km/h 71.8% 0.0 mm
23:49 16.9 °C 11.6 °C 1020.5 hPa SO 5 km/h 10 km/h 71% 0.0 mm
23:54 16.9 °C 11.5 °C 1020.5 hPa SO 6.1 km/h 10 km/h 70.3% 0.0 mm
23:59 16.8 °C 11.4 °C 1020.4 hPa SO 6.5 km/h 11.1 km/h 70.1% 0.0 mm
Murcia-Puente Tocinos, Espa?a
Compliments of Weather Underground - 3 mb

La estación de MeteoMurcia.com, publica sus datos en los siguientes proyectos:

Weather Underground PWS IMURCIAP2 Meteoclimatic www.awekas.at

W3Counter
Web Analytics